sensor_id;sensor_type;location;lat;lon;timestamp;temperature;humidity
31759;DHT22;36334;51.366;0.020;2022-11-20T00:00:44;5.70;99.90
31759;DHT22;36334;51.366;0.020;2022-11-20T00:03:29;5.70;99.90
31759;DHT22;36334;51.366;0.020;2022-11-20T00:06:18;5.60;99.90
31759;DHT22;36334;51.366;0.020;2022-11-20T00:09:04;5.60;99.90
31759;DHT22;36334;51.366;0.020;2022-11-20T00:11:51;5.60;99.90
31759;DHT22;36334;51.366;0.020;2022-11-20T00:14:37;5.60;99.90
31759;DHT22;36334;51.366;0.020;2022-11-20T00:17:23;5.60;99.90
31759;DHT22;36334;51.366;0.020;2022-11-20T00:20:09;5.60;99.90
31759;DHT22;36334;51.366;0.020;2022-11-20T00:22:56;5.60;99.90
31759;DHT22;36334;51.366;0.020;2022-11-20T00:25:42;5.70;99.90
31759;DHT22;36334;51.366;0.020;2022-11-20T00:28:29;5.60;99.90
31759;DHT22;36334;51.366;0.020;2022-11-20T00:31:16;5.60;99.90
31759;DHT22;36334;51.366;0.020;2022-11-20T00:34:02;5.60;99.90
31759;DHT22;36334;51.366;0.020;2022-11-20T00:36:47;5.60;99.90
31759;DHT22;36334;51.366;0.020;2022-11-20T00:39:36;5.60;99.90
31759;DHT22;36334;51.366;0.020;2022-11-20T00:42:22;5.70;99.90
31759;DHT22;36334;51.366;0.020;2022-11-20T00:45:08;5.70;99.90
31759;DHT22;36334;51.366;0.020;2022-11-20T00:47:54;5.70;99.90
31759;DHT22;36334;51.366;0.020;2022-11-20T00:50:41;5.80;99.90
31759;DHT22;36334;51.366;0.020;2022-11-20T00:53:27;5.80;99.90
31759;DHT22;36334;51.366;0.020;2022-11-20T00:56:17;5.80;99.90
31759;DHT22;36334;51.366;0.020;2022-11-20T00:59:03;5.80;99.90
31759;DHT22;36334;51.366;0.020;2022-11-20T01:01:50;5.80;99.90
31759;DHT22;36334;51.366;0.020;2022-11-20T01:04:36;5.90;99.90
31759;DHT22;36334;51.366;0.020;2022-11-20T01:07:22;5.90;99.90
31759;DHT22;36334;51.366;0.020;2022-11-20T01:10:08;5.90;99.90
31759;DHT22;36334;51.366;0.020;2022-11-20T01:12:54;6.00;99.90
31759;DHT22;36334;51.366;0.020;2022-11-20T01:18:59;6.00;99.90
31759;DHT22;36334;51.366;0.020;2022-11-20T01:21:48;6.00;99.90
31759;DHT22;36334;51.366;0.020;2022-11-20T01:24:34;6.00;99.90
31759;DHT22;36334;51.366;0.020;2022-11-20T01:27:20;6.00;99.90
31759;DHT22;36334;51.366;0.020;2022-11-20T01:30:07;5.90;99.90
31759;DHT22;36334;51.366;0.020;2022-11-20T01:32:55;6.00;99.90
31759;DHT22;36334;51.366;0.020;2022-11-20T01:35:41;6.00;99.90
31759;DHT22;36334;51.366;0.020;2022-11-20T01:38:28;6.00;99.90
31759;DHT22;36334;51.366;0.020;2022-11-20T01:41:15;6.10;99.90
31759;DHT22;36334;51.366;0.020;2022-11-20T01:47:44;6.20;99.90
31759;DHT22;36334;51.366;0.020;2022-11-20T01:50:31;6.20;99.90
31759;DHT22;36334;51.366;0.020;2022-11-20T01:53:23;6.30;99.90
31759;DHT22;36334;51.366;0.020;2022-11-20T01:56:12;6.30;99.90
31759;DHT22;36334;51.366;0.020;2022-11-20T01:59:01;6.40;99.90
31759;DHT22;36334;51.366;0.020;2022-11-20T02:01:48;6.40;99.90
31759;DHT22;36334;51.366;0.020;2022-11-20T02:04:35;6.50;99.90
31759;DHT22;36334;51.366;0.020;2022-11-20T02:07:23;6.50;99.90
31759;DHT22;36334;51.366;0.020;2022-11-20T02:10:10;6.50;99.90
31759;DHT22;36334;51.366;0.020;2022-11-20T02:12:57;6.60;99.90
31759;DHT22;36334;51.366;0.020;2022-11-20T02:16:03;6.60;99.90
31759;DHT22;36334;51.366;0.020;2022-11-20T02:18:50;6.50;99.90
31759;DHT22;36334;51.366;0.020;2022-11-20T02:22:02;6.50;99.90
31759;DHT22;36334;51.366;0.020;2022-11-20T02:24:50;6.60;99.90
31759;DHT22;36334;51.366;0.020;2022-11-20T02:27:37;6.50;99.90
31759;DHT22;36334;51.366;0.020;2022-11-20T02:30:23;6.50;99.90
31759;DHT22;36334;51.366;0.020;2022-11-20T02:33:09;6.60;99.90
31759;DHT22;36334;51.366;0.020;2022-11-20T02:35:55;6.60;99.90
31759;DHT22;36334;51.366;0.020;2022-11-20T02:38:42;6.60;99.90
31759;DHT22;36334;51.366;0.020;2022-11-20T02:41:35;6.60;99.90
31759;DHT22;36334;51.366;0.020;2022-11-20T02:44:22;6.70;99.90
31759;DHT22;36334;51.366;0.020;2022-11-20T02:47:08;6.80;99.90
31759;DHT22;36334;51.366;0.020;2022-11-20T02:49:54;6.80;99.90
31759;DHT22;36334;51.366;0.020;2022-11-20T02:52:41;6.80;99.90
31759;DHT22;36334;51.366;0.020;2022-11-20T02:55:27;6.80;99.90
31759;DHT22;36334;51.366;0.020;2022-11-20T02:58:13;6.80;99.90
31759;DHT22;36334;51.366;0.020;2022-11-20T03:01:00;6.90;99.90
31759;DHT22;36334;51.366;0.020;2022-11-20T03:03:46;6.90;99.90
31759;DHT22;36334;51.366;0.020;2022-11-20T03:06:34;7.00;99.90
31759;DHT22;36334;51.366;0.020;2022-11-20T03:09:20;7.00;99.90
31759;DHT22;36334;51.366;0.020;2022-11-20T03:12:07;7.10;99.90
31759;DHT22;36334;51.366;0.020;2022-11-20T03:14:53;7.10;99.90
31759;DHT22;36334;51.366;0.020;2022-11-20T03:17:39;7.10;99.90
31759;DHT22;36334;51.366;0.020;2022-11-20T03:20:26;7.10;99.90
31759;DHT22;36334;51.366;0.020;2022-11-20T03:23:12;7.20;99.90
31759;DHT22;36334;51.366;0.020;2022-11-20T03:29:01;7.20;99.90
31759;DHT22;36334;51.366;0.020;2022-11-20T03:31:48;7.20;99.90
31759;DHT22;36334;51.366;0.020;2022-11-20T03:34:34;7.30;99.90
31759;DHT22;36334;51.366;0.020;2022-11-20T03:37:23;7.20;99.90
31759;DHT22;36334;51.366;0.020;2022-11-20T03:40:09;7.40;99.90
31759;DHT22;36334;51.366;0.020;2022-11-20T03:42:56;7.30;99.90
31759;DHT22;36334;51.366;0.020;2022-11-20T03:45:42;7.40;99.90
31759;DHT22;36334;51.366;0.020;2022-11-20T03:48:28;7.40;99.90
31759;DHT22;36334;51.366;0.020;2022-11-20T03:51:17;7.40;99.90
31759;DHT22;36334;51.366;0.020;2022-11-20T03:54:08;7.40;99.90
31759;DHT22;36334;51.366;0.020;2022-11-20T03:56:54;7.40;99.90
31759;DHT22;36334;51.366;0.020;2022-11-20T03:59:39;7.40;99.90
31759;DHT22;36334;51.366;0.020;2022-11-20T04:02:25;7.40;99.90
31759;DHT22;36334;51.366;0.020;2022-11-20T04:05:11;7.40;99.90
31759;DHT22;36334;51.366;0.020;2022-11-20T04:07:57;7.50;99.90
31759;DHT22;36334;51.366;0.020;2022-11-20T04:10:43;7.50;99.90
31759;DHT22;36334;51.366;0.020;2022-11-20T04:13:29;7.50;99.90
31759;DHT22;36334;51.366;0.020;2022-11-20T04:16:18;7.50;99.90
31759;DHT22;36334;51.366;0.020;2022-11-20T04:19:10;7.50;99.90
31759;DHT22;36334;51.366;0.020;2022-11-20T04:21:57;7.50;99.90
31759;DHT22;36334;51.366;0.020;2022-11-20T04:24:44;7.60;99.90
31759;DHT22;36334;51.366;0.020;2022-11-20T04:27:30;7.60;99.90
31759;DHT22;36334;51.366;0.020;2022-11-20T04:30:17;7.60;99.90
31759;DHT22;36334;51.366;0.020;2022-11-20T04:33:03;7.60;99.90
31759;DHT22;36334;51.366;0.020;2022-11-20T04:35:49;7.70;99.90
31759;DHT22;36334;51.366;0.020;2022-11-20T04:38:36;7.70;99.90
31759;DHT22;36334;51.366;0.020;2022-11-20T04:41:25;7.70;99.90
31759;DHT22;36334;51.366;0.020;2022-11-20T04:44:11;7.60;99.90
31759;DHT22;36334;51.366;0.020;2022-11-20T04:46:57;7.70;99.90
31759;DHT22;36334;51.366;0.020;2022-11-20T04:49:43;7.80;99.90
31759;DHT22;36334;51.366;0.020;2022-11-20T04:52:29;7.70;99.90
31759;DHT22;36334;51.366;0.020;2022-11-20T04:55:15;7.80;99.90
31759;DHT22;36334;51.366;0.020;2022-11-20T04:58:02;7.70;99.90
31759;DHT22;36334;51.366;0.020;2022-11-20T05:00:47;7.80;99.90
31759;DHT22;36334;51.366;0.020;2022-11-20T05:03:33;7.70;99.90
31759;DHT22;36334;51.366;0.020;2022-11-20T05:06:27;7.80;99.90
31759;DHT22;36334;51.366;0.020;2022-11-20T05:09:13;7.90;99.90
31759;DHT22;36334;51.366;0.020;2022-11-20T05:11:59;7.90;99.90
31759;DHT22;36334;51.366;0.020;2022-11-20T05:14:45;7.90;99.90
31759;DHT22;36334;51.366;0.020;2022-11-20T05:17:32;7.90;99.90
31759;DHT22;36334;51.366;0.020;2022-11-20T05:20:19;7.90;99.90
31759;DHT22;36334;51.366;0.020;2022-11-20T05:23:05;7.90;99.90
31759;DHT22;36334;51.366;0.020;2022-11-20T05:25:55;8.00;99.90
31759;DHT22;36334;51.366;0.020;2022-11-20T05:28:44;8.00;99.90
31759;DHT22;36334;51.366;0.020;2022-11-20T05:31:31;8.00;99.90
31759;DHT22;36334;51.366;0.020;2022-11-20T05:34:17;8.00;99.90
31759;DHT22;36334;51.366;0.020;2022-11-20T05:37:03;7.90;99.90
31759;DHT22;36334;51.366;0.020;2022-11-20T05:39:49;8.00;99.90
31759;DHT22;36334;51.366;0.020;2022-11-20T05:42:35;8.00;99.90
31759;DHT22;36334;51.366;0.020;2022-11-20T05:45:21;8.10;99.90
31759;DHT22;36334;51.366;0.020;2022-11-20T05:48:07;8.10;99.90
31759;DHT22;36334;51.366;0.020;2022-11-20T05:50:53;8.10;99.90
31759;DHT22;36334;51.366;0.020;2022-11-20T05:53:41;8.10;99.90
31759;DHT22;36334;51.366;0.020;2022-11-20T05:56:36;8.10;99.90
31759;DHT22;36334;51.366;0.020;2022-11-20T05:59:22;8.00;99.90
31759;DHT22;36334;51.366;0.020;2022-11-20T06:02:09;8.10;99.90
31759;DHT22;36334;51.366;0.020;2022-11-20T06:04:55;8.10;99.90
31759;DHT22;36334;51.366;0.020;2022-11-20T06:07:41;8.10;99.90
31759;DHT22;36334;51.366;0.020;2022-11-20T06:10:27;8.10;99.90
31759;DHT22;36334;51.366;0.020;2022-11-20T06:13:14;8.10;99.90
31759;DHT22;36334;51.366;0.020;2022-11-20T06:16:00;8.00;99.90
31759;DHT22;36334;51.366;0.020;2022-11-20T06:18:46;8.10;99.90
31759;DHT22;36334;51.366;0.020;2022-11-20T06:21:33;8.10;99.90
31759;DHT22;36334;51.366;0.020;2022-11-20T06:24:19;8.10;99.90
31759;DHT22;36334;51.366;0.020;2022-11-20T06:27:05;8.20;99.90
31759;DHT22;36334;51.366;0.020;2022-11-20T06:29:52;8.20;99.90
31759;DHT22;36334;51.366;0.020;2022-11-20T06:32:38;8.20;99.90
31759;DHT22;36334;51.366;0.020;2022-11-20T06:35:23;8.20;99.90
31759;DHT22;36334;51.366;0.020;2022-11-20T06:38:09;8.20;99.90
31759;DHT22;36334;51.366;0.020;2022-11-20T06:40:55;8.30;99.90
31759;DHT22;36334;51.366;0.020;2022-11-20T06:43:42;8.30;99.90
31759;DHT22;36334;51.366;0.020;2022-11-20T06:46:29;8.30;99.90
31759;DHT22;36334;51.366;0.020;2022-11-20T06:49:15;8.40;99.90
31759;DHT22;36334;51.366;0.020;2022-11-20T06:52:01;8.40;99.90
31759;DHT22;36334;51.366;0.020;2022-11-20T06:54:47;8.40;99.90
31759;DHT22;36334;51.366;0.020;2022-11-20T06:57:33;8.50;99.90
31759;DHT22;36334;51.366;0.020;2022-11-20T07:00:19;8.40;99.90
31759;DHT22;36334;51.366;0.020;2022-11-20T07:03:07;8.50;99.90
31759;DHT22;36334;51.366;0.020;2022-11-20T07:05:57;8.50;99.90
31759;DHT22;36334;51.366;0.020;2022-11-20T07:08:44;8.50;99.90
31759;DHT22;36334;51.366;0.020;2022-11-20T07:11:30;8.50;99.90
31759;DHT22;36334;51.366;0.020;2022-11-20T07:14:15;8.60;99.90
31759;DHT22;36334;51.366;0.020;2022-11-20T07:17:01;8.60;99.90
31759;DHT22;36334;51.366;0.020;2022-11-20T07:19:50;8.60;99.90
31759;DHT22;36334;51.366;0.020;2022-11-20T07:22:41;8.70;99.90
31759;DHT22;36334;51.366;0.020;2022-11-20T07:25:27;8.70;99.90
31759;DHT22;36334;51.366;0.020;2022-11-20T07:28:14;8.80;99.90
31759;DHT22;36334;51.366;0.020;2022-11-20T07:31:00;8.80;99.90
31759;DHT22;36334;51.366;0.020;2022-11-20T07:33:47;8.80;99.90
31759;DHT22;36334;51.366;0.020;2022-11-20T07:36:33;8.90;99.90
31759;DHT22;36334;51.366;0.020;2022-11-20T07:39:20;9.00;99.90
31759;DHT22;36334;51.366;0.020;2022-11-20T07:42:07;9.00;99.90
31759;DHT22;36334;51.366;0.020;2022-11-20T07:44:56;9.00;99.90
31759;DHT22;36334;51.366;0.020;2022-11-20T07:47:43;9.10;99.90
31759;DHT22;36334;51.366;0.020;2022-11-20T07:50:30;9.10;99.90
31759;DHT22;36334;51.366;0.020;2022-11-20T07:53:16;9.20;99.90
31759;DHT22;36334;51.366;0.020;2022-11-20T07:56:09;9.20;99.90
31759;DHT22;36334;51.366;0.020;2022-11-20T07:58:56;9.20;99.90
31759;DHT22;36334;51.366;0.020;2022-11-20T08:01:42;9.10;99.90
31759;DHT22;36334;51.366;0.020;2022-11-20T08:04:28;9.00;99.90
31759;DHT22;36334;51.366;0.020;2022-11-20T08:07:15;9.00;99.90
31759;DHT22;36334;51.366;0.020;2022-11-20T08:10:01;9.00;99.90
31759;DHT22;36334;51.366;0.020;2022-11-20T08:12:48;8.90;99.90
31759;DHT22;36334;51.366;0.020;2022-11-20T08:15:53;8.90;99.90
31759;DHT22;36334;51.366;0.020;2022-11-20T08:18:39;8.90;99.90
31759;DHT22;36334;51.366;0.020;2022-11-20T08:21:27;9.00;99.90
31759;DHT22;36334;51.366;0.020;2022-11-20T08:24:18;9.00;99.90
31759;DHT22;36334;51.366;0.020;2022-11-20T08:27:04;9.00;99.90
31759;DHT22;36334;51.366;0.020;2022-11-20T08:29:51;9.10;99.90
31759;DHT22;36334;51.366;0.020;2022-11-20T08:32:37;9.00;99.90
31759;DHT22;36334;51.366;0.020;2022-11-20T08:35:23;8.90;99.90
31759;DHT22;36334;51.366;0.020;2022-11-20T08:38:09;9.00;99.90
31759;DHT22;36334;51.366;0.020;2022-11-20T08:40:59;9.00;99.90
31759;DHT22;36334;51.366;0.020;2022-11-20T08:44:10;9.00;99.90
31759;DHT22;36334;51.366;0.020;2022-11-20T08:47:01;9.10;99.90
31759;DHT22;36334;51.366;0.020;2022-11-20T08:49:48;9.20;99.90
31759;DHT22;36334;51.366;0.020;2022-11-20T08:52:35;9.00;99.90
31759;DHT22;36334;51.366;0.020;2022-11-20T08:55:25;9.00;99.90
31759;DHT22;36334;51.366;0.020;2022-11-20T08:58:15;8.90;99.90
31759;DHT22;36334;51.366;0.020;2022-11-20T09:01:13;8.90;99.90
31759;DHT22;36334;51.366;0.020;2022-11-20T09:03:59;8.90;99.90
31759;DHT22;36334;51.366;0.020;2022-11-20T09:06:46;8.70;99.90
31759;DHT22;36334;51.366;0.020;2022-11-20T09:09:36;8.90;99.90
31759;DHT22;36334;51.366;0.020;2022-11-20T09:12:28;8.80;99.90
31759;DHT22;36334;51.366;0.020;2022-11-20T09:15:14;8.80;99.90
31759;DHT22;36334;51.366;0.020;2022-11-20T09:18:02;8.80;99.90
31759;DHT22;36334;51.366;0.020;2022-11-20T09:20:49;8.80;99.90
31759;DHT22;36334;51.366;0.020;2022-11-20T09:23:36;8.80;99.90
31759;DHT22;36334;51.366;0.020;2022-11-20T09:26:23;8.80;99.90
31759;DHT22;36334;51.366;0.020;2022-11-20T09:29:09;8.90;99.90
31759;DHT22;36334;51.366;0.020;2022-11-20T09:31:55;8.90;99.90
31759;DHT22;36334;51.366;0.020;2022-11-20T09:34:41;8.90;99.90
31759;DHT22;36334;51.366;0.020;2022-11-20T09:37:27;8.90;99.90
31759;DHT22;36334;51.366;0.020;2022-11-20T09:40:32;8.90;99.90
31759;DHT22;36334;51.366;0.020;2022-11-20T09:43:56;8.90;99.90
31759;DHT22;36334;51.366;0.020;2022-11-20T09:46:57;8.80;99.90
31759;DHT22;36334;51.366;0.020;2022-11-20T09:49:52;8.80;99.90
31759;DHT22;36334;51.366;0.020;2022-11-20T09:56:11;8.80;99.90
31759;DHT22;36334;51.366;0.020;2022-11-20T09:59:02;8.80;99.90
31759;DHT22;36334;51.366;0.020;2022-11-20T10:01:49;8.80;99.90
31759;DHT22;36334;51.366;0.020;2022-11-20T10:04:39;8.80;99.90
31759;DHT22;36334;51.366;0.020;2022-11-20T10:07:37;8.80;99.90
31759;DHT22;36334;51.366;0.020;2022-11-20T10:13:45;8.70;99.90
31759;DHT22;36334;51.366;0.020;2022-11-20T10:20:09;8.70;99.90
31759;DHT22;36334;51.366;0.020;2022-11-20T10:26:21;8.60;99.90
31759;DHT22;36334;51.366;0.020;2022-11-20T10:29:19;8.60;99.90
31759;DHT22;36334;51.366;0.020;2022-11-20T10:32:14;8.60;99.90
31759;DHT22;36334;51.366;0.020;2022-11-20T10:37:54;8.60;99.90
31759;DHT22;36334;51.366;0.020;2022-11-20T10:40:48;8.60;99.90
31759;DHT22;36334;51.366;0.020;2022-11-20T10:43:35;8.60;99.90
31759;DHT22;36334;51.366;0.020;2022-11-20T10:46:22;8.70;99.90
31759;DHT22;36334;51.366;0.020;2022-11-20T10:49:14;8.70;99.90
31759;DHT22;36334;51.366;0.020;2022-11-20T10:52:09;8.70;99.90
31759;DHT22;36334;51.366;0.020;2022-11-20T10:58:37;8.70;99.90
31759;DHT22;36334;51.366;0.020;2022-11-20T11:01:25;8.80;99.90
31759;DHT22;36334;51.366;0.020;2022-11-20T11:04:02;8.80;99.90
31759;DHT22;36334;51.366;0.020;2022-11-20T11:06:49;8.80;99.90
31759;DHT22;36334;51.366;0.020;2022-11-20T11:09:42;8.90;99.90
31759;DHT22;36334;51.366;0.020;2022-11-20T11:12:29;9.00;99.90
31759;DHT22;36334;51.366;0.020;2022-11-20T11:15:45;9.00;99.90
31759;DHT22;36334;51.366;0.020;2022-11-20T11:18:34;9.00;99.90
31759;DHT22;36334;51.366;0.020;2022-11-20T11:21:24;9.00;99.90
31759;DHT22;36334;51.366;0.020;2022-11-20T11:24:23;9.00;99.90
31759;DHT22;36334;51.366;0.020;2022-11-20T11:27:29;9.10;99.90
31759;DHT22;36334;51.366;0.020;2022-11-20T11:30:18;9.20;99.90
31759;DHT22;36334;51.366;0.020;2022-11-20T11:33:22;9.20;99.90
31759;DHT22;36334;51.366;0.020;2022-11-20T11:36:19;9.30;99.90
31759;DHT22;36334;51.366;0.020;2022-11-20T11:39:11;9.30;99.90
31759;DHT22;36334;51.366;0.020;2022-11-20T11:42:00;9.40;99.90
31759;DHT22;36334;51.366;0.020;2022-11-20T11:44:47;9.40;99.90
31759;DHT22;36334;51.366;0.020;2022-11-20T11:47:55;9.40;99.90
31759;DHT22;36334;51.366;0.020;2022-11-20T11:50:49;9.40;99.90
31759;DHT22;36334;51.366;0.020;2022-11-20T11:53:38;9.40;99.90
31759;DHT22;36334;51.366;0.020;2022-11-20T11:56:27;9.40;99.90
31759;DHT22;36334;51.366;0.020;2022-11-20T11:59:26;9.40;99.90
31759;DHT22;36334;51.366;0.020;2022-11-20T12:02:32;9.40;99.90
31759;DHT22;36334;51.366;0.020;2022-11-20T12:05:30;9.40;99.90
31759;DHT22;36334;51.366;0.020;2022-11-20T12:08:31;9.50;99.90
31759;DHT22;36334;51.366;0.020;2022-11-20T12:14:34;9.50;99.90
31759;DHT22;36334;51.366;0.020;2022-11-20T12:17:20;9.60;99.90
31759;DHT22;36334;51.366;0.020;2022-11-20T12:20:15;9.60;99.90
31759;DHT22;36334;51.366;0.020;2022-11-20T12:25:52;9.70;99.90
31759;DHT22;36334;51.366;0.020;2022-11-20T12:31:55;9.80;99.90
31759;DHT22;36334;51.366;0.020;2022-11-20T12:35:03;9.80;99.90
31759;DHT22;36334;51.366;0.020;2022-11-20T12:38:18;9.90;99.90
31759;DHT22;36334;51.366;0.020;2022-11-20T12:48:29;10.10;99.90
31759;DHT22;36334;51.366;0.020;2022-11-20T12:57:50;10.20;99.90
31759;DHT22;36334;51.366;0.020;2022-11-20T13:00:47;10.20;99.90
31759;DHT22;36334;51.366;0.020;2022-11-20T13:03:42;10.20;99.90
31759;DHT22;36334;51.366;0.020;2022-11-20T13:06:30;10.20;99.90
31759;DHT22;36334;51.366;0.020;2022-11-20T13:09:19;10.20;99.90
31759;DHT22;36334;51.366;0.020;2022-11-20T13:18:33;10.20;99.90
31759;DHT22;36334;51.366;0.020;2022-11-20T13:21:35;10.20;99.90
31759;DHT22;36334;51.366;0.020;2022-11-20T13:24:23;10.20;99.90
31759;DHT22;36334;51.366;0.020;2022-11-20T13:30:16;10.30;99.90
31759;DHT22;36334;51.366;0.020;2022-11-20T13:33:09;10.30;99.90
31759;DHT22;36334;51.366;0.020;2022-11-20T13:36:24;10.30;99.90
31759;DHT22;36334;51.366;0.020;2022-11-20T13:39:11;10.40;99.90
31759;DHT22;36334;51.366;0.020;2022-11-20T13:45:09;10.40;99.90
31759;DHT22;36334;51.366;0.020;2022-11-20T13:47:58;10.50;99.90
31759;DHT22;36334;51.366;0.020;2022-11-20T14:06:02;10.50;99.90
31759;DHT22;36334;51.366;0.020;2022-11-20T14:08:51;10.40;99.90
31759;DHT22;36334;51.366;0.020;2022-11-20T14:11:46;10.40;99.90
31759;DHT22;36334;51.366;0.020;2022-11-20T14:14:33;10.30;99.90
31759;DHT22;36334;51.366;0.020;2022-11-20T14:17:22;10.30;99.90
31759;DHT22;36334;51.366;0.020;2022-11-20T14:20:14;10.20;99.90
31759;DHT22;36334;51.366;0.020;2022-11-20T14:23:00;10.20;99.90
31759;DHT22;36334;51.366;0.020;2022-11-20T14:25:47;10.10;99.90
31759;DHT22;36334;51.366;0.020;2022-11-20T14:28:33;10.20;99.90
31759;DHT22;36334;51.366;0.020;2022-11-20T14:31:23;10.20;99.90
31759;DHT22;36334;51.366;0.020;2022-11-20T14:34:25;10.20;99.90
31759;DHT22;36334;51.366;0.020;2022-11-20T14:37:19;10.20;99.90
31759;DHT22;36334;51.366;0.020;2022-11-20T14:40:31;10.20;99.90
31759;DHT22;36334;51.366;0.020;2022-11-20T14:43:25;10.30;99.90
31759;DHT22;36334;51.366;0.020;2022-11-20T14:46:11;10.30;99.90
31759;DHT22;36334;51.366;0.020;2022-11-20T14:49:01;10.40;99.90
31759;DHT22;36334;51.366;0.020;2022-11-20T14:52:01;10.40;99.90
31759;DHT22;36334;51.366;0.020;2022-11-20T14:54:49;10.40;99.90
31759;DHT22;36334;51.366;0.020;2022-11-20T14:57:36;10.50;99.90
31759;DHT22;36334;51.366;0.020;2022-11-20T15:00:22;10.40;99.90
31759;DHT22;36334;51.366;0.020;2022-11-20T15:03:15;10.40;99.90
31759;DHT22;36334;51.366;0.020;2022-11-20T15:06:02;10.40;99.90
31759;DHT22;36334;51.366;0.020;2022-11-20T15:08:52;10.40;99.90
31759;DHT22;36334;51.366;0.020;2022-11-20T15:11:38;10.40;99.90
31759;DHT22;36334;51.366;0.020;2022-11-20T15:14:27;10.40;99.90
31759;DHT22;36334;51.366;0.020;2022-11-20T15:17:13;10.30;99.90
31759;DHT22;36334;51.366;0.020;2022-11-20T15:20:02;10.30;99.90
31759;DHT22;36334;51.366;0.020;2022-11-20T15:22:48;10.30;99.90
31759;DHT22;36334;51.366;0.020;2022-11-20T15:25:34;10.20;99.90
31759;DHT22;36334;51.366;0.020;2022-11-20T15:28:25;10.20;99.90
31759;DHT22;36334;51.366;0.020;2022-11-20T15:31:14;10.10;99.90
31759;DHT22;36334;51.366;0.020;2022-11-20T15:34:01;10.00;99.90
31759;DHT22;36334;51.366;0.020;2022-11-20T15:36:46;10.00;99.90
31759;DHT22;36334;51.366;0.020;2022-11-20T15:39:33;9.90;99.90
31759;DHT22;36334;51.366;0.020;2022-11-20T15:42:18;9.90;99.90
31759;DHT22;36334;51.366;0.020;2022-11-20T15:45:05;9.90;99.90
31759;DHT22;36334;51.366;0.020;2022-11-20T15:47:53;9.80;99.90
31759;DHT22;36334;51.366;0.020;2022-11-20T15:53:47;9.80;99.90
31759;DHT22;36334;51.366;0.020;2022-11-20T15:56:33;9.80;99.90
31759;DHT22;36334;51.366;0.020;2022-11-20T15:59:19;9.80;99.90
31759;DHT22;36334;51.366;0.020;2022-11-20T16:02:14;9.80;99.90
31759;DHT22;36334;51.366;0.020;2022-11-20T16:05:10;9.80;99.90
31759;DHT22;36334;51.366;0.020;2022-11-20T16:07:57;9.70;99.90
31759;DHT22;36334;51.366;0.020;2022-11-20T16:10:43;9.80;99.90
31759;DHT22;36334;51.366;0.020;2022-11-20T16:13:31;9.80;99.90
31759;DHT22;36334;51.366;0.020;2022-11-20T16:16:37;9.70;99.90
31759;DHT22;36334;51.366;0.020;2022-11-20T16:19:23;9.70;99.90
31759;DHT22;36334;51.366;0.020;2022-11-20T16:22:11;9.50;99.90
31759;DHT22;36334;51.366;0.020;2022-11-20T16:24:57;9.50;99.90
31759;DHT22;36334;51.366;0.020;2022-11-20T16:27:43;9.50;99.90
31759;DHT22;36334;51.366;0.020;2022-11-20T16:30:31;9.50;99.90
31759;DHT22;36334;51.366;0.020;2022-11-20T16:33:17;9.50;99.90
31759;DHT22;36334;51.366;0.020;2022-11-20T16:36:12;9.50;99.90
31759;DHT22;36334;51.366;0.020;2022-11-20T16:39:00;9.40;99.90
31759;DHT22;36334;51.366;0.020;2022-11-20T16:41:47;9.40;99.90
31759;DHT22;36334;51.366;0.020;2022-11-20T16:44:33;9.40;99.90
31759;DHT22;36334;51.366;0.020;2022-11-20T16:47:19;9.50;99.90
31759;DHT22;36334;51.366;0.020;2022-11-20T16:50:06;9.50;99.90
31759;DHT22;36334;51.366;0.020;2022-11-20T16:52:52;9.50;99.90
31759;DHT22;36334;51.366;0.020;2022-11-20T16:55:38;9.50;99.90
31759;DHT22;36334;51.366;0.020;2022-11-20T16:58:23;9.60;99.90
31759;DHT22;36334;51.366;0.020;2022-11-20T17:01:12;9.50;99.90
31759;DHT22;36334;51.366;0.020;2022-11-20T17:04:04;9.60;99.90
31759;DHT22;36334;51.366;0.020;2022-11-20T17:06:50;9.60;99.90
31759;DHT22;36334;51.366;0.020;2022-11-20T17:09:37;9.60;99.90
31759;DHT22;36334;51.366;0.020;2022-11-20T17:12:22;9.60;99.90
31759;DHT22;36334;51.366;0.020;2022-11-20T17:15:09;9.60;99.90
31759;DHT22;36334;51.366;0.020;2022-11-20T17:17:59;9.60;99.90
31759;DHT22;36334;51.366;0.020;2022-11-20T17:20:51;9.60;99.90
31759;DHT22;36334;51.366;0.020;2022-11-20T17:23:39;9.60;99.90
31759;DHT22;36334;51.366;0.020;2022-11-20T17:26:25;9.70;99.90
31759;DHT22;36334;51.366;0.020;2022-11-20T17:29:15;9.70;99.90
31759;DHT22;36334;51.366;0.020;2022-11-20T17:32:01;9.70;99.90
31759;DHT22;36334;51.366;0.020;2022-11-20T17:34:47;9.60;99.90
31759;DHT22;36334;51.366;0.020;2022-11-20T17:37:33;9.70;99.90
31759;DHT22;36334;51.366;0.020;2022-11-20T17:40:19;9.70;99.90
31759;DHT22;36334;51.366;0.020;2022-11-20T17:43:11;9.70;99.90
31759;DHT22;36334;51.366;0.020;2022-11-20T17:45:58;9.70;99.90
31759;DHT22;36334;51.366;0.020;2022-11-20T17:48:45;9.60;99.90
31759;DHT22;36334;51.366;0.020;2022-11-20T17:51:33;9.70;99.90
31759;DHT22;36334;51.366;0.020;2022-11-20T17:54:22;9.70;99.90
31759;DHT22;36334;51.366;0.020;2022-11-20T17:57:09;9.60;99.90
31759;DHT22;36334;51.366;0.020;2022-11-20T18:00:14;9.60;99.90
31759;DHT22;36334;51.366;0.020;2022-11-20T18:03:02;9.60;99.90
31759;DHT22;36334;51.366;0.020;2022-11-20T18:05:48;9.50;99.90
31759;DHT22;36334;51.366;0.020;2022-11-20T18:08:34;9.50;99.90
31759;DHT22;36334;51.366;0.020;2022-11-20T18:11:22;9.40;99.90
31759;DHT22;36334;51.366;0.020;2022-11-20T18:14:15;9.30;99.90
31759;DHT22;36334;51.366;0.020;2022-11-20T18:17:17;9.20;99.90
31759;DHT22;36334;51.366;0.020;2022-11-20T18:20:03;9.10;99.90
31759;DHT22;36334;51.366;0.020;2022-11-20T18:23:09;9.00;99.90
31759;DHT22;36334;51.366;0.020;2022-11-20T18:25:59;8.90;99.90
31759;DHT22;36334;51.366;0.020;2022-11-20T18:28:45;8.80;99.90
31759;DHT22;36334;51.366;0.020;2022-11-20T18:31:32;8.80;99.90
31759;DHT22;36334;51.366;0.020;2022-11-20T18:34:18;8.70;99.90
31759;DHT22;36334;51.366;0.020;2022-11-20T18:37:04;8.60;99.90
31759;DHT22;36334;51.366;0.020;2022-11-20T18:39:51;8.60;99.90
31759;DHT22;36334;51.366;0.020;2022-11-20T18:42:37;8.50;99.90
31759;DHT22;36334;51.366;0.020;2022-11-20T18:45:42;8.50;99.90
31759;DHT22;36334;51.366;0.020;2022-11-20T18:48:30;8.40;99.90
31759;DHT22;36334;51.366;0.020;2022-11-20T18:51:16;8.30;99.90
31759;DHT22;36334;51.366;0.020;2022-11-20T18:56:49;8.20;99.90
31759;DHT22;36334;51.366;0.020;2022-11-20T18:59:40;8.20;99.90
31759;DHT22;36334;51.366;0.020;2022-11-20T19:02:27;8.20;99.90
31759;DHT22;36334;51.366;0.020;2022-11-20T19:05:14;8.10;99.90
31759;DHT22;36334;51.366;0.020;2022-11-20T19:08:00;8.10;99.90
31759;DHT22;36334;51.366;0.020;2022-11-20T19:10:46;8.00;99.90
31759;DHT22;36334;51.366;0.020;2022-11-20T19:13:36;8.00;99.90
31759;DHT22;36334;51.366;0.020;2022-11-20T19:16:22;8.00;99.90
31759;DHT22;36334;51.366;0.020;2022-11-20T19:19:09;7.90;99.90
31759;DHT22;36334;51.366;0.020;2022-11-20T19:21:55;7.90;99.90
31759;DHT22;36334;51.366;0.020;2022-11-20T19:24:42;7.90;99.90
31759;DHT22;36334;51.366;0.020;2022-11-20T19:27:27;7.80;99.90
31759;DHT22;36334;51.366;0.020;2022-11-20T19:30:14;7.90;99.90